Time;durP1;ratioP1;P1;durP2;ratioP2;P2;SDS_P1;SDS_P2;PMS_P1;PMS_P2;Temp;Humidity;BMP_temperature;BMP_pressure;BME280_temperature;BME280_humidity;BME280_pressure;Samples;Min_cycle;Max_cycle;Signal;HPM_P1;HPM_P2
2023/12/09 00:02:08;;;;;;;0.20;0.20;;;;;;;9.39;77.47;101040.72;5084134;28;20013;-85
2023/12/09 00:04:34;;;;;;;1.65;1.48;;;;;;;9.42;77.61;101044.22;5093075;28;20029;-85
2023/12/09 00:07:00;;;;;;;0.85;0.85;;;;;;;9.33;77.76;101043.44;5075927;28;20048;-86
2023/12/09 00:09:26;;;;;;;0.55;0.55;;;;;;;9.43;77.83;101040.69;5082252;28;20028;-85
2023/12/09 00:11:52;;;;;;;0.10;0.10;;;;;;;9.38;77.68;101043.38;5094469;28;20099;-85
2023/12/09 00:14:19;;;;;;;0.10;0.10;;;;;;;9.46;77.74;101041.53;5085042;28;20028;-84
2023/12/09 00:16:45;;;;;;;0.10;0.10;;;;;;;9.48;77.47;101045.03;5092052;28;20039;-84
2023/12/09 00:19:12;;;;;;;0.10;0.10;;;;;;;9.45;77.32;101050.34;5078443;28;20029;-85
2023/12/09 00:21:39;;;;;;;0.10;0.10;;;;;;;9.37;77.39;101042.50;5082080;28;20032;-84
2023/12/09 00:24:05;;;;;;;0.90;0.90;;;;;;;9.32;77.87;101039.03;5085976;28;20032;-85
2023/12/09 00:26:31;;;;;;;0.82;0.82;;;;;;;9.41;77.52;101040.72;5080070;28;20047;-82
2023/12/09 00:28:57;;;;;;;0.20;0.20;;;;;;;9.40;77.63;101041.59;5078311;28;20119;-83
2023/12/09 00:31:24;;;;;;;0.20;0.20;;;;;;;9.36;77.16;101046.03;5083481;28;20132;-85
2023/12/09 00:33:50;;;;;;;0.10;0.10;;;;;;;9.31;77.52;101041.69;5076240;28;20039;-85
2023/12/09 00:36:16;;;;;;;0.20;0.20;;;;;;;9.35;77.36;101043.44;5082107;28;20032;-83
2023/12/09 00:38:42;;;;;;;0.10;0.10;;;;;;;9.28;77.46;101052.31;5083093;28;20063;-83
2023/12/09 00:41:09;;;;;;;0.20;0.20;;;;;;;9.25;77.78;101058.50;5077755;28;20036;-83
2023/12/09 00:43:35;;;;;;;0.43;0.43;;;;;;;9.30;77.21;101048.75;5082753;28;20024;-83
2023/12/09 00:46:01;;;;;;;3.80;1.58;;;;;;;9.34;77.16;101052.25;5085375;28;20028;-83
2023/12/09 00:48:27;;;;;;;0.10;0.10;;;;;;;9.36;76.94;101043.41;5082562;28;20153;-82
2023/12/09 00:50:53;;;;;;;0.20;0.20;;;;;;;9.38;76.91;101038.09;5087533;28;20050;-83
2023/12/09 00:53:20;;;;;;;0.10;0.10;;;;;;;9.25;77.01;101042.66;5085490;28;20028;-83
2023/12/09 00:55:46;;;;;;;0.22;0.22;;;;;;;9.37;76.42;101039.88;5090073;28;20025;-84
2023/12/09 00:58:12;;;;;;;0.15;0.15;;;;;;;9.33;76.79;101035.50;5086067;28;20054;-83
2023/12/09 01:00:38;;;;;;;0.10;0.10;;;;;;;9.33;76.23;101045.19;5088005;28;20063;-83
2023/12/09 01:03:04;;;;;;;0.20;0.20;;;;;;;9.29;76.65;101033.78;5083329;28;20047;-83
2023/12/09 01:05:30;;;;;;;0.75;0.75;;;;;;;9.26;76.36;101039.13;5086936;28;20047;-83
2023/12/09 01:07:56;;;;;;;0.13;0.13;;;;;;;9.21;76.70;101030.38;5080570;28;20082;-83
2023/12/09 01:10:23;;;;;;;0.20;0.20;;;;;;;9.18;76.68;101028.63;5077354;28;20052;-83
2023/12/09 01:12:49;;;;;;;0.10;0.10;;;;;;;9.18;76.61;101035.66;5080339;28;20544;-83
2023/12/09 01:15:16;;;;;;;0.38;0.38;;;;;;;9.20;76.52;101036.53;5082027;28;20059;-84
2023/12/09 01:17:42;;;;;;;0.52;0.52;;;;;;;9.11;76.42;101039.28;5082353;28;20045;-85
2023/12/09 01:20:09;;;;;;;0.20;0.20;;;;;;;9.12;76.38;101026.06;5083786;28;20047;-84
2023/12/09 01:22:35;;;;;;;0.17;0.17;;;;;;;9.09;76.40;101035.78;5082962;28;20112;-83
2023/12/09 01:25:01;;;;;;;0.28;0.28;;;;;;;9.13;76.54;101026.94;5083787;28;20032;-82
2023/12/09 01:27:27;;;;;;;1.75;1.45;;;;;;;9.13;76.64;101021.63;5081171;28;20399;-83
2023/12/09 01:29:54;;;;;;;0.10;0.10;;;;;;;9.11;76.24;101039.28;5077745;28;20047;-83
2023/12/09 01:32:20;;;;;;;0.10;0.10;;;;;;;9.12;76.30;101031.34;5071664;28;20086;-83
2023/12/09 01:34:46;;;;;;;0.20;0.20;;;;;;;9.07;76.29;101033.13;5073139;28;20047;-82
2023/12/09 01:37:13;;;;;;;1.08;1.00;;;;;;;9.04;76.45;101022.63;5076004;28;20039;-84
2023/12/09 01:39:40;;;;;;;1.65;1.55;;;;;;;9.07;75.90;101006.72;5076311;28;20033;-83
2023/12/09 01:42:08;;;;;;;0.20;0.20;;;;;;;9.01;76.05;101010.31;5083113;28;20047;-83
2023/12/09 01:44:34;;;;;;;8.77;1.85;;;;;;;8.99;76.02;101004.16;5076060;28;20021;-83
2023/12/09 01:47:01;;;;;;;0.10;0.10;;;;;;;8.86;75.90;101008.72;5074739;28;20043;-84
2023/12/09 01:49:27;;;;;;;10.05;1.10;;;;;;;8.91;76.12;101006.03;5071716;28;20064;-83
2023/12/09 01:51:54;;;;;;;0.20;0.20;;;;;;;8.80;76.02;101000.84;5080929;28;20029;-84
2023/12/09 01:54:20;;;;;;;0.15;0.15;;;;;;;8.88;75.76;100987.53;5074242;28;20119;-83
2023/12/09 01:56:47;;;;;;;0.30;0.30;;;;;;;8.84;75.73;100999.03;5088001;28;20032;-83
2023/12/09 01:59:14;;;;;;;0.20;0.20;;;;;;;8.70;76.26;100996.53;5083356;28;20033;-83
2023/12/09 02:01:40;;;;;;;0.20;0.20;;;;;;;8.66;76.52;101000.09;5085906;28;20097;-83
2023/12/09 02:04:06;;;;;;;0.17;0.17;;;;;;;8.58;76.12;101003.69;5082334;28;20292;-83
2023/12/09 02:06:33;;;;;;;0.40;0.40;;;;;;;8.58;76.31;100992.25;5089562;28;20032;-83
2023/12/09 02:08:59;;;;;;;0.50;0.50;;;;;;;8.50;76.66;100994.06;5079428;28;20034;-83
2023/12/09 02:14:07;;;;;;;0.35;0.35;;;;;;;8.48;76.82;100998.50;5095750;27;1252805;-85
2023/12/09 02:16:46;;;;;;;0.32;0.32;;;;;;;8.50;76.57;101004.63;5130506;27;20028;-86
2023/12/09 02:19:13;;;;;;;0.20;0.20;;;;;;;8.48;76.93;100995.88;5117966;28;20869;-86
2023/12/09 02:22:01;;;;;;;1.30;1.30;;;;;;;8.50;76.47;101005.53;5106150;27;20020;-86
2023/12/09 02:24:28;;;;;;;0.20;0.20;;;;;;;8.38;77.19;100995.91;5112988;28;20078;-85
2023/12/09 02:27:08;;;;;;;0.20;0.20;;;;;;;8.42;76.66;100997.66;5108609;28;20107;-85
2023/12/09 02:29:49;;;;;;;0.20;0.20;;;;;;;8.42;76.29;100984.44;5110355;28;20135;-84
2023/12/09 02:32:19;;;;;;;0.20;0.20;;;;;;;8.39;76.90;100975.66;5105658;28;20639;-84
2023/12/09 02:34:47;;;;;;;0.20;0.20;;;;;;;8.35;76.56;100963.34;5112995;28;20056;-84
2023/12/09 02:37:15;;;;;;;0.20;0.20;;;;;;;8.31;76.49;100965.19;5116000;28;20351;-83
2023/12/09 02:39:42;;;;;;;0.10;0.10;;;;;;;8.26;76.01;100962.56;5108927;27;20039;-84
2023/12/09 02:42:09;;;;;;;1.65;1.55;;;;;;;8.18;76.21;100971.44;5114968;28;20074;-84
2023/12/09 02:44:36;;;;;;;0.35;0.35;;;;;;;8.19;76.30;100973.19;5101850;28;20088;-83
2023/12/09 02:47:03;;;;;;;1.85;1.38;;;;;;;8.12;76.51;100971.50;5100351;28;20031;-84
2023/12/09 02:49:29;;;;;;;0.20;0.20;;;;;;;8.10;76.26;100964.47;5111571;28;20028;-85
2023/12/09 02:51:55;;;;;;;0.20;0.20;;;;;;;8.07;75.93;100956.56;5109789;28;20402;-85
2023/12/09 02:54:21;;;;;;;0.20;0.20;;;;;;;8.04;76.27;100948.66;5108022;28;20545;-84
2023/12/09 02:56:47;;;;;;;0.25;0.25;;;;;;;7.99;76.64;100945.19;5108969;28;20051;-84
2023/12/09 02:59:13;;;;;;;0.20;0.20;;;;;;;7.98;76.28;100955.78;5108620;28;20024;-84
2023/12/09 03:01:40;;;;;;;0.30;0.30;;;;;;;7.96;76.16;100958.41;5104149;28;20031;-85
2023/12/09 03:04:06;;;;;;;0.10;0.10;;;;;;;7.94;76.61;100963.69;5114929;28;20067;-85
2023/12/09 03:06:32;;;;;;;0.10;0.10;;;;;;;7.96;76.38;100957.53;5111665;28;20019;-85
2023/12/09 03:08:58;;;;;;;0.20;0.20;;;;;;;7.94;76.60;100952.28;5111433;28;20028;-83
2023/12/09 03:11:24;;;;;;;0.10;0.10;;;;;;;7.96;76.06;100950.47;5116290;28;20500;-84
2023/12/09 03:13:50;;;;;;;0.15;0.15;;;;;;;7.93;76.31;100942.59;5117261;28;20136;-84
2023/12/09 03:16:16;;;;;;;0.10;0.10;;;;;;;7.80;75.85;100943.56;5132080;28;20039;-84
2023/12/09 03:18:43;;;;;;;0.17;0.17;;;;;;;7.84;76.63;100950.56;5112384;28;20036;-85
2023/12/09 03:21:14;;;;;;;0.20;0.20;;;;;;;7.84;76.20;100947.94;5118694;28;20096;-85
2023/12/09 03:23:42;;;;;;;0.20;0.20;;;;;;;7.75;76.55;100949.75;5111586;27;20012;-85
2023/12/09 03:28:52;;;;;;;0.10;0.10;;;;;;;7.74;76.25;100944.50;5100715;27;1199726;-84
2023/12/09 03:31:19;;;;;;;32.33;2.25;;;;;;;7.68;76.14;100955.94;5134906;28;20087;-84
2023/12/09 03:33:45;;;;;;;1.27;0.55;;;;;;;7.69;76.10;100947.16;5134488;27;20035;-84
2023/12/09 03:36:13;;;;;;;0.20;0.20;;;;;;;7.64;76.80;100935.78;5132695;27;20031;-83
2023/12/09 03:38:40;;;;;;;0.40;0.40;;;;;;;7.66;76.19;100936.63;5132904;27;20031;-84
2023/12/09 03:41:07;;;;;;;0.20;0.20;;;;;;;7.65;76.72;100929.63;5129894;27;20086;-84
2023/12/09 03:43:34;;;;;;;0.20;0.20;;;;;;;7.60;76.59;100919.09;5124644;27;20118;-85
2023/12/09 03:46:00;;;;;;;0.20;0.20;;;;;;;7.59;76.68;100932.28;5132820;27;20024;-83
2023/12/09 03:48:27;;;;;;;0.20;0.20;;;;;;;7.56;76.48;100916.47;5135269;27;20024;-84
2023/12/09 03:50:53;;;;;;;0.15;0.15;;;;;;;7.59;76.34;100908.56;5125841;28;20591;-83
2023/12/09 03:53:20;;;;;;;5.18;2.08;;;;;;;7.62;76.33;100908.53;5131892;28;20060;-84
2023/12/09 03:55:48;;;;;;;0.20;0.20;;;;;;;7.61;76.79;100912.03;5127052;27;20031;-83
2023/12/09 03:58:14;;;;;;;0.20;0.20;;;;;;;7.60;76.44;100905.00;5129709;28;20096;-84
2023/12/09 04:00:40;;;;;;;0.13;0.13;;;;;;;7.59;77.21;100903.28;5135439;27;20023;-82
2023/12/09 04:03:06;;;;;;;0.20;0.20;;;;;;;7.57;76.43;100903.28;5130388;27;20085;-84
2023/12/09 04:05:33;;;;;;;0.20;0.20;;;;;;;7.55;76.25;100896.25;5131753;27;20056;-84
2023/12/09 04:07:59;;;;;;;0.20;0.20;;;;;;;7.52;76.95;100902.44;5126830;28;20024;-84
2023/12/09 04:10:25;;;;;;;0.20;0.20;;;;;;;7.56;77.08;100898.00;5129165;27;20111;-84
2023/12/09 04:12:51;;;;;;;0.20;0.20;;;;;;;7.56;76.94;100895.38;5132216;27;20042;-83
2023/12/09 04:15:18;;;;;;;0.20;0.20;;;;;;;7.55;77.26;100888.34;5129687;27;20393;-83
2023/12/09 04:17:44;;;;;;;0.20;0.20;;;;;;;7.50;77.04;100882.25;5132012;28;20038;-83
2023/12/09 04:20:10;;;;;;;0.30;0.30;;;;;;;7.56;77.63;100898.00;5124930;28;20032;-83
2023/12/09 04:22:38;;;;;;;0.17;0.17;;;;;;;7.51;77.89;100889.28;5126665;27;20031;-82
2023/12/09 04:25:05;;;;;;;0.20;0.20;;;;;;;7.58;77.21;100893.63;5121314;28;20149;-84
2023/12/09 04:27:32;;;;;;;0.10;0.10;;;;;;;7.60;77.11;100894.47;5118541;27;20059;-84
2023/12/09 04:29:59;;;;;;;0.30;0.30;;;;;;;7.65;76.99;100884.78;5128424;27;20100;-84
2023/12/09 04:32:30;;;;;;;0.25;0.25;;;;;;;7.62;77.13;100887.44;5130962;27;20023;-84
2023/12/09 04:34:56;;;;;;;0.20;0.20;;;;;;;7.58;77.19;100880.44;5128306;28;20035;-84
2023/12/09 04:37:23;;;;;;;0.10;0.10;;;;;;;7.60;77.53;100874.25;5132789;28;20517;-85
2023/12/09 04:39:50;;;;;;;0.13;0.13;;;;;;;7.61;77.42;100867.22;5118255;27;20032;-83
2023/12/09 04:42:16;;;;;;;2.22;2.03;;;;;;;7.58;77.26;100861.97;5116429;28;20042;-85
2023/12/09 04:44:42;;;;;;;0.65;0.65;;;;;;;7.61;77.37;100854.03;5113171;28;20099;-84
2023/12/09 04:47:09;;;;;;;0.10;0.10;;;;;;;7.63;77.51;100862.81;5118092;28;20035;-84
2023/12/09 04:49:35;;;;;;;2.17;1.02;;;;;;;7.68;77.75;100866.28;5110084;28;20072;-84
2023/12/09 04:52:01;;;;;;;0.15;0.15;;;;;;;7.68;77.36;100866.28;5106375;28;20031;-84
2023/12/09 04:54:27;;;;;;;0.20;0.20;;;;;;;7.66;77.45;100862.78;5114959;28;20442;-84
2023/12/09 04:56:53;;;;;;;0.17;0.17;;;;;;;7.68;77.99;100855.75;5105029;28;20612;-84
2023/12/09 04:59:20;;;;;;;0.20;0.20;;;;;;;7.66;78.11;100852.22;5115434;28;20011;-82
2023/12/09 05:01:46;;;;;;;0.20;0.20;;;;;;;7.68;77.46;100855.75;5131315;28;20055;-83
2023/12/09 05:04:12;;;;;;;0.40;0.40;;;;;;;7.69;77.80;100862.78;5123666;28;20158;-84
2023/12/09 05:06:38;;;;;;;0.10;0.10;;;;;;;7.62;77.82;100861.06;5119660;28;20032;-83
2023/12/09 05:09:04;;;;;;;0.17;0.17;;;;;;;7.63;77.71;100852.25;5117055;28;20061;-82
2023/12/09 05:11:30;;;;;;;0.20;0.20;;;;;;;7.70;78.06;100853.97;5112531;28;20028;-84
2023/12/09 05:13:56;;;;;;;0.20;0.20;;;;;;;7.71;78.14;100858.38;5108874;28;20035;-84
2023/12/09 05:16:22;;;;;;;0.20;0.20;;;;;;;7.78;77.58;100852.13;5111600;28;20042;-84
2023/12/09 05:18:49;;;;;;;0.20;0.20;;;;;;;7.80;78.21;100859.16;5108245;28;20500;-83
2023/12/09 05:21:15;;;;;;;0.45;0.45;;;;;;;7.80;78.03;100841.59;5110977;28;20071;-82
2023/12/09 05:23:41;;;;;;;0.15;0.15;;;;;;;7.86;77.50;100824.81;5107026;28;20065;-83
2023/12/09 05:26:07;;;;;;;0.10;0.10;;;;;;;7.87;77.78;100829.22;5117624;28;20027;-83
2023/12/09 05:28:33;;;;;;;0.32;0.32;;;;;;;7.82;77.78;100831.88;5113628;28;20050;-83
2023/12/09 05:30:59;;;;;;;0.10;0.10;;;;;;;7.85;77.75;100831.88;5121117;28;20049;-83
2023/12/09 05:33:25;;;;;;;3.20;0.90;;;;;;;7.88;77.79;100831.81;5125920;28;20038;-83
2023/12/09 05:35:51;;;;;;;0.55;0.55;;;;;;;7.91;77.71;100826.53;5137107;28;20023;-83
2023/12/09 05:38:17;;;;;;;0.20;0.20;;;;;;;7.87;77.81;100832.72;5123099;28;20043;-83
2023/12/09 05:40:44;;;;;;;0.82;0.82;;;;;;;7.87;77.34;100827.44;5121138;28;20055;-83
2023/12/09 05:43:10;;;;;;;9.43;1.25;;;;;;;7.92;77.46;100811.56;5132330;28;20040;-83
2023/12/09 05:45:36;;;;;;;0.52;0.52;;;;;;;7.92;77.96;100806.28;5129309;28;20037;-83
2023/12/09 05:48:02;;;;;;;1.13;1.13;;;;;;;7.91;78.13;100801.91;5136434;28;20023;-82
2023/12/09 05:50:28;;;;;;;0.52;0.52;;;;;;;7.94;77.56;100805.38;5134325;28;20031;-84
2023/12/09 05:52:55;;;;;;;2.45;2.25;;;;;;;8.00;77.65;100799.19;5123137;28;20104;-83
2023/12/09 05:55:21;;;;;;;0.43;0.43;;;;;;;8.04;78.12;100797.41;5122213;28;20031;-83
2023/12/09 05:57:47;;;;;;;0.30;0.30;;;;;;;8.03;77.52;100800.91;5118899;28;20048;-84
2023/12/09 06:00:13;;;;;;;1.45;1.10;;;;;;;8.15;77.45;100797.25;5116014;28;20063;-84
2023/12/09 06:02:41;;;;;;;0.13;0.13;;;;;;;8.14;78.07;100788.50;5113836;28;20019;-84
2023/12/09 06:05:07;;;;;;;0.20;0.20;;;;;;;8.22;78.03;100788.41;5112017;28;20032;-84
2023/12/09 06:07:33;;;;;;;0.10;0.10;;;;;;;8.28;77.81;100785.69;5116474;28;20124;-84
2023/12/09 06:09:59;;;;;;;0.20;0.20;;;;;;;8.24;78.16;100787.47;5114317;28;20023;-84
2023/12/09 06:12:25;;;;;;;0.20;0.20;;;;;;;8.32;78.03;100774.19;5110433;28;20089;-84
2023/12/09 06:14:53;;;;;;;0.90;0.90;;;;;;;8.33;78.21;100778.59;5111401;28;20055;-83
2023/12/09 06:17:19;;;;;;;4.20;3.10;;;;;;;8.36;78.07;100768.00;5117497;28;20023;-84
2023/12/09 06:19:45;;;;;;;1.52;1.42;;;;;;;8.43;78.68;100771.44;5118784;28;20140;-84
2023/12/09 06:22:11;;;;;;;0.20;0.20;;;;;;;8.42;78.36;100761.75;5116858;28;20027;-84
2023/12/09 06:24:37;;;;;;;0.73;0.70;;;;;;;8.53;78.61;100751.97;5115971;28;20035;-84
2023/12/09 06:27:04;;;;;;;0.10;0.10;;;;;;;8.54;78.25;100756.34;5116031;28;20042;-84
2023/12/09 06:29:30;;;;;;;0.10;0.10;;;;;;;8.67;78.09;100753.56;5120560;28;20490;-84
2023/12/09 06:31:56;;;;;;;0.17;0.17;;;;;;;8.68;78.43;100740.31;5108777;28;20039;-84
2023/12/09 06:34:22;;;;;;;4.47;2.40;;;;;;;8.59;78.23;100732.53;5118519;28;20533;-84
2023/12/09 06:36:48;;;;;;;0.10;0.10;;;;;;;8.68;78.08;100721.81;5123752;28;20047;-85
2023/12/09 06:39:14;;;;;;;0.20;0.20;;;;;;;8.72;78.23;100715.63;5115392;28;20359;-84
2023/12/09 06:41:40;;;;;;;1.08;0.98;;;;;;;8.66;77.96;100706.91;5111683;28;20020;-83
2023/12/09 06:44:07;;;;;;;0.63;0.63;;;;;;;8.72;78.02;100686.56;5109070;28;20131;-84
2023/12/09 06:46:38;;;;;;;0.30;0.30;;;;;;;8.75;77.79;100667.16;5112993;28;20028;-84
2023/12/09 06:49:05;;;;;;;2.53;1.23;;;;;;;8.68;78.09;100661.06;5112805;28;20024;-83
2023/12/09 06:51:31;;;;;;;1.40;1.30;;;;;;;8.73;77.87;100656.63;5114359;28;20500;-84
2023/12/09 06:53:57;;;;;;;0.10;0.10;;;;;;;8.79;77.90;100660.91;5111396;28;20048;-83
2023/12/09 06:56:24;;;;;;;0.20;0.20;;;;;;;8.83;77.68;100659.97;5109897;28;20053;-83
2023/12/09 06:58:51;;;;;;;0.20;0.20;;;;;;;8.85;78.03;100652.91;5117918;28;20068;-84
2023/12/09 07:01:19;;;;;;;0.10;0.10;;;;;;;8.82;77.68;100652.06;5108921;28;20496;-84
2023/12/09 07:03:45;;;;;;;0.20;0.20;;;;;;;8.84;77.62;100655.56;5113792;28;20093;-84
2023/12/09 07:06:12;;;;;;;0.75;0.75;;;;;;;8.89;77.61;100654.59;5113747;28;20041;-83
2023/12/09 07:08:39;;;;;;;0.20;0.20;;;;;;;8.90;77.54;100648.41;5114098;28;20067;-84
2023/12/09 07:11:06;;;;;;;0.45;0.45;;;;;;;8.86;77.43;100656.41;5110891;28;20731;-83
2023/12/09 07:13:32;;;;;;;0.95;0.95;;;;;;;8.94;77.62;100654.53;5110849;28;20035;-83
2023/12/09 07:15:58;;;;;;;0.20;0.20;;;;;;;8.92;77.29;100636.94;5112019;28;20051;-83
2023/12/09 07:18:25;;;;;;;0.30;0.30;;;;;;;8.94;77.37;100641.31;5111750;28;20024;-84
2023/12/09 07:20:51;;;;;;;0.15;0.15;;;;;;;9.01;77.02;100634.13;5117007;28;20055;-84
2023/12/09 07:23:17;;;;;;;0.20;0.20;;;;;;;8.86;77.32;100633.50;5116197;28;20027;-84
2023/12/09 07:25:43;;;;;;;0.20;0.20;;;;;;;8.94;77.11;100624.59;5109828;28;20052;-84
2023/12/09 07:28:09;;;;;;;0.95;0.95;;;;;;;9.01;77.21;100632.38;5105325;28;20025;-84
2023/12/09 07:30:35;;;;;;;0.38;0.38;;;;;;;8.98;77.09;100628.94;5115044;28;20100;-83
2023/12/09 07:33:01;;;;;;;0.20;0.20;;;;;;;9.02;76.96;100628.84;5124265;28;20011;-83
2023/12/09 07:35:28;;;;;;;0.10;0.10;;;;;;;9.02;76.69;100631.50;5132404;28;20020;-84
2023/12/09 07:37:55;;;;;;;0.10;0.10;;;;;;;9.12;76.91;100633.97;5114957;28;20047;-85
2023/12/09 07:40:21;;;;;;;0.10;0.10;;;;;;;9.11;76.41;100626.94;5114501;28;20028;-85
2023/12/09 07:42:48;;;;;;;0.28;0.28;;;;;;;9.15;76.59;100618.06;5117860;28;20039;-83
2023/12/09 07:45:14;;;;;;;2.75;0.88;;;;;;;9.18;76.42;100615.34;5110436;28;20085;-84
2023/12/09 07:47:40;;;;;;;0.10;0.10;;;;;;;9.21;76.23;100610.88;5119016;28;20027;-84
2023/12/09 07:50:06;;;;;;;0.52;0.35;;;;;;;9.19;76.40;100615.31;5113756;28;20035;-84
2023/12/09 07:52:32;;;;;;;0.20;0.20;;;;;;;9.13;76.53;100606.63;5112759;28;20032;-84
2023/12/09 07:54:59;;;;;;;0.10;0.10;;;;;;;9.21;76.28;100597.66;5114971;28;20501;-84
2023/12/09 07:57:25;;;;;;;0.82;0.82;;;;;;;9.26;76.57;100597.59;5118382;28;20055;-82
2023/12/09 07:59:51;;;;;;;0.10;0.10;;;;;;;9.22;76.23;100599.41;5119146;28;20038;-82
2023/12/09 08:02:17;;;;;;;0.10;0.10;;;;;;;9.26;76.09;100615.22;5105440;28;20103;-83
2023/12/09 08:04:43;;;;;;;0.73;0.73;;;;;;;9.19;76.63;100603.88;5098024;28;20115;-83
2023/12/09 08:07:09;;;;;;;0.10;0.10;;;;;;;9.22;76.65;100602.06;5112527;28;20040;-82
2023/12/09 08:09:36;;;;;;;0.47;0.47;;;;;;;9.26;76.07;100584.38;5120037;28;20468;-84
2023/12/09 08:12:05;;;;;;;0.20;0.20;;;;;;;9.30;76.30;100579.91;5120111;28;20035;-84
2023/12/09 08:14:31;;;;;;;0.17;0.17;;;;;;;9.32;76.45;100588.66;5123943;28;20031;-83
2023/12/09 08:16:57;;;;;;;0.52;0.52;;;;;;;9.33;76.29;100586.00;5123717;28;20031;-83
2023/12/09 08:19:23;;;;;;;0.10;0.10;;;;;;;9.43;76.27;100583.19;5130430;28;20173;-83
2023/12/09 08:21:49;;;;;;;0.30;0.30;;;;;;;9.49;75.84;100575.97;5131084;27;20057;-84
2023/12/09 08:24:15;;;;;;;0.10;0.10;;;;;;;9.42;76.16;100573.50;5126362;28;20024;-82
2023/12/09 08:26:42;;;;;;;0.38;0.38;;;;;;;9.56;75.86;100566.16;5127738;28;20131;-84
2023/12/09 08:29:11;;;;;;;0.30;0.30;;;;;;;9.54;75.87;100563.56;5126730;27;20031;-84
2023/12/09 08:31:37;;;;;;;4.55;2.10;;;;;;;9.55;75.49;100564.41;5124788;28;20028;-84
2023/12/09 08:34:04;;;;;;;0.10;0.10;;;;;;;9.62;75.82;100555.47;5125697;27;20520;-83
2023/12/09 08:36:30;;;;;;;1.55;0.68;;;;;;;9.65;75.53;100555.38;5124545;28;20028;-84
2023/12/09 08:38:56;;;;;;;0.15;0.15;;;;;;;9.63;75.60;100551.03;5123847;28;20028;-83
2023/12/09 08:41:22;;;;;;;0.10;0.10;;;;;;;9.61;75.67;100539.59;5127008;27;20024;-85
2023/12/09 08:44:00;;;;;;;0.10;0.10;;;;;;;9.68;75.67;100523.59;5125089;27;20027;-85
2023/12/09 08:46:26;;;;;;;0.10;0.10;;;;;;;9.62;75.55;100521.09;5133905;27;20061;-83
2023/12/09 08:48:52;;;;;;;0.10;0.10;;;;;;;9.60;75.62;100503.50;5135143;27;20402;-86
2023/12/09 08:51:19;;;;;;;1.85;1.35;;;;;;;9.70;75.50;100491.81;5119297;28;20031;-84
2023/12/09 08:53:45;;;;;;;0.20;0.20;;;;;;;9.66;75.34;100490.16;5120942;27;20046;-82
2023/12/09 08:56:11;;;;;;;0.20;0.20;;;;;;;9.61;75.69;100484.06;5114471;27;20040;-85
2023/12/09 08:58:37;;;;;;;0.88;0.88;;;;;;;9.67;75.37;100482.16;5118342;27;20065;-84
2023/12/09 09:01:03;;;;;;;0.20;0.20;;;;;;;9.69;75.47;100480.38;5124656;27;20384;-84
2023/12/09 09:03:30;;;;;;;1.13;1.13;;;;;;;9.67;75.46;100474.22;5115114;28;20028;-85
2023/12/09 09:05:57;;;;;;;0.20;0.20;;;;;;;9.70;75.53;100471.50;5117576;28;20048;-84
2023/12/09 09:08:23;;;;;;;0.43;0.43;;;;;;;9.74;75.86;100468.81;5112467;28;20032;-84
2023/12/09 09:10:49;;;;;;;0.40;0.40;;;;;;;9.70;75.17;100463.56;5112412;28;20032;-84
2023/12/09 09:13:15;;;;;;;0.10;0.10;;;;;;;9.69;75.19;100458.31;5114392;28;20024;-83
2023/12/09 09:15:42;;;;;;;0.10;0.10;;;;;;;9.74;75.71;100448.50;5115561;28;20036;-82
2023/12/09 09:18:08;;;;;;;0.20;0.20;;;;;;;9.68;75.13;100457.47;5117429;28;20028;-82
2023/12/09 09:20:34;;;;;;;0.20;0.20;;;;;;;9.69;75.36;100445.97;5107403;28;20118;-81
2023/12/09 09:23:01;;;;;;;0.10;0.10;;;;;;;9.64;75.06;100431.97;5115171;28;20028;-82
2023/12/09 09:25:27;;;;;;;0.10;0.10;;;;;;;9.63;75.15;100435.53;5109623;28;20024;-82
2023/12/09 09:27:53;;;;;;;0.10;0.10;;;;;;;9.72;74.93;100429.16;5109092;28;20027;-83
2023/12/09 09:30:19;;;;;;;0.10;0.10;;;;;;;9.74;75.04;100423.81;5112775;28;20031;-84
2023/12/09 09:32:46;;;;;;;1.48;1.48;;;;;;;9.77;75.04;100411.41;5113147;28;20024;-84
2023/12/09 09:35:13;;;;;;;0.20;0.20;;;;;;;9.87;75.07;100407.63;5114196;28;20024;-83
2023/12/09 09:37:39;;;;;;;0.20;0.20;;;;;;;9.86;75.15;100399.72;5114564;28;20039;-82
2023/12/09 09:40:05;;;;;;;0.77;0.77;;;;;;;9.82;74.99;100388.34;5112878;28;20035;-82
2023/12/09 09:47:53;;;;;;;11.07;0.97;;;;;;;9.92;74.73;100377.53;5145171;27;1183330;-84
2023/12/09 09:50:22;;;;;;;0.20;0.20;;;;;;;9.84;74.92;100375.06;5177704;27;20026;-81
2023/12/09 09:52:50;;;;;;;2.53;0.82;;;;;;;9.93;75.01;100358.09;5174985;27;20523;-84
2023/12/09 09:55:22;;;;;;;0.43;0.43;;;;;;;9.94;74.97;100349.25;5176324;27;20495;-83
2023/12/09 09:57:48;;;;;;;;;;;;;;;10.08;74.34;100330.38;5162992;27;20031;-81
2023/12/09 10:00:19;;;;;;;0.13;0.13;;;;;;;9.97;74.64;100328.88;5162910;27;20380;-81
2023/12/09 10:02:47;;;;;;;0.32;0.32;;;;;;;9.97;74.64;100320.03;5166683;27;20091;-82
2023/12/09 10:05:17;;;;;;;0.10;0.10;;;;;;;10.07;74.52;100310.09;5168761;27;20034;-80
2023/12/09 10:07:44;;;;;;;0.10;0.10;;;;;;;10.11;74.33;100303.81;5171199;27;20017;-79
2023/12/09 10:10:13;;;;;;;0.30;0.30;;;;;;;10.14;74.77;100304.63;5167397;27;20052;-84
2023/12/09 10:12:39;;;;;;;0.10;0.10;;;;;;;10.20;74.17;100290.31;5163376;27;20037;-82
2023/12/09 10:15:06;;;;;;;0.20;0.20;;;;;;;10.22;74.24;100269.09;5172169;27;20029;-83
2023/12/09 10:17:33;;;;;;;0.10;0.10;;;;;;;10.31;73.86;100263.56;5164653;27;20397;-84
2023/12/09 10:20:05;;;;;;;0.40;0.40;;;;;;;10.35;74.25;100244.91;5167222;27;20031;-82
2023/12/09 10:22:32;;;;;;;0.80;0.80;;;;;;;10.33;74.15;100246.72;5170598;27;20062;-83
2023/12/09 10:25:00;;;;;;;0.10;0.10;;;;;;;10.37;73.78;100242.25;5167053;27;20034;-83
2023/12/09 10:27:27;;;;;;;0.10;0.10;;;;;;;10.30;73.28;100230.03;5171359;27;20022;-84
2023/12/09 10:29:58;;;;;;;2.28;0.77;;;;;;;10.29;73.85;100226.53;5157610;27;20042;-81
2023/12/09 10:32:26;;;;;;;0.10;0.10;;;;;;;10.32;73.99;100212.34;5158067;27;20034;-83
2023/12/09 10:34:52;;;;;;;0.73;0.73;;;;;;;10.34;73.43;100202.56;5154841;27;20126;-79
2023/12/09 10:37:19;;;;;;;0.10;0.10;;;;;;;10.29;73.39;100192.13;5153022;27;20027;-81
2023/12/09 10:39:47;;;;;;;0.15;0.15;;;;;;;10.26;73.61;100176.31;5159078;27;20026;-83
2023/12/09 10:42:14;;;;;;;1.27;1.17;;;;;;;10.30;73.85;100171.78;5160273;27;20048;-81
2023/12/09 10:44:41;;;;;;;0.10;0.10;;;;;;;10.28;73.97;100168.31;5164626;27;20023;-82
2023/12/09 10:47:07;;;;;;;0.17;0.17;;;;;;;10.34;73.85;100163.72;5157437;27;20031;-84
2023/12/09 10:49:34;;;;;;;0.10;0.10;;;;;;;10.28;73.96;100140.06;5160112;27;20023;-83
2023/12/09 10:52:01;;;;;;;1.02;0.95;;;;;;;10.34;73.68;100137.25;5153302;27;20019;-82
2023/12/09 10:54:27;;;;;;;5.63;3.35;;;;;;;10.31;74.04;100125.88;5154206;27;20030;-82
2023/12/09 10:56:53;;;;;;;0.30;0.30;;;;;;;10.25;74.14;100115.47;5153647;27;20265;-82
2023/12/09 10:59:20;;;;;;;0.10;0.10;;;;;;;10.31;73.88;100094.09;5139442;27;20023;-81
2023/12/09 11:01:47;;;;;;;0.10;0.10;;;;;;;10.26;74.17;100074.84;5140719;27;20110;-82
2023/12/09 11:04:14;;;;;;;0.10;0.10;;;;;;;10.34;74.09;100063.09;5142501;27;20027;-82
2023/12/09 11:06:42;;;;;;;0.65;0.65;;;;;;;10.19;74.51;100053.84;5146362;27;20019;-83
2023/12/09 11:09:09;;;;;;;0.15;0.15;;;;;;;10.21;74.79;100035.28;5144145;27;20029;-81
2023/12/09 11:11:36;;;;;;;0.10;0.10;;;;;;;10.23;74.49;100054.63;5142748;27;20232;-82
2023/12/09 11:14:07;;;;;;;0.10;0.10;;;;;;;10.16;75.06;100039.84;5147348;27;20447;-82
2023/12/09 11:16:34;;;;;;;0.10;0.10;;;;;;;10.18;75.01;100024.75;5146620;27;20509;-81
2023/12/09 11:19:00;;;;;;;0.20;0.20;;;;;;;10.11;75.47;100002.06;5146630;27;20062;-80
2023/12/09 11:21:29;;;;;;;0.35;0.35;;;;;;;10.27;75.40;99995.38;5146365;27;20026;-80
2023/12/09 11:23:57;;;;;;;1.77;1.45;;;;;;;10.18;75.06;99988.59;5143661;27;20025;-81
2023/12/09 11:26:33;;;;;;;0.10;0.10;;;;;;;10.24;75.60;99971.63;5145344;27;20023;-82
2023/12/09 11:29:19;;;;;;;0.25;0.25;;;;;;;10.29;75.19;99967.06;5145443;27;20049;-81
2023/12/09 11:31:48;;;;;;;0.10;0.10;;;;;;;10.21;75.56;99961.16;5140611;27;20032;-81
2023/12/09 11:34:17;;;;;;;2.90;0.90;;;;;;;10.21;75.57;99947.91;5148802;27;20027;-80
2023/12/09 11:36:46;;;;;;;0.82;0.43;;;;;;;10.24;76.00;99933.69;5176031;27;20033;-80
2023/12/09 11:39:17;;;;;;;0.15;0.15;;;;;;;10.34;75.72;99927.19;5157288;27;20055;-79
2023/12/09 11:41:44;;;;;;;0.20;0.20;;;;;;;10.34;76.01;99919.22;5155353;27;20018;-79